sensor_id;sensor_type;location;lat;lon;timestamp;P1;durP1;ratioP1;P2;durP2;ratioP2
79403;SDS011;68858;48.642;9.142;2023-04-24T01:13:41;2.03;;;1.10;;
79403;SDS011;68858;48.642;9.142;2023-04-24T01:16:43;1.97;;;1.03;;
79403;SDS011;68858;48.642;9.142;2023-04-24T01:19:15;1.40;;;0.90;;
79403;SDS011;68858;48.642;9.142;2023-04-24T01:22:00;2.80;;;1.20;;
79403;SDS011;68858;48.642;9.142;2023-04-24T01:25:13;1.20;;;0.80;;
79403;SDS011;68858;48.642;9.142;2023-04-24T01:27:54;1.40;;;1.03;;
79403;SDS011;68858;48.642;9.142;2023-04-24T01:30:28;1.57;;;1.10;;
79403;SDS011;68858;48.642;9.142;2023-04-24T01:32:59;1.47;;;0.87;;
79403;SDS011;68858;48.642;9.142;2023-04-24T01:35:36;1.23;;;1.10;;
79403;SDS011;68858;48.642;9.142;2023-04-24T01:38:24;2.43;;;0.90;;
79403;SDS011;68858;48.642;9.142;2023-04-24T01:41:01;1.67;;;0.80;;
79403;SDS011;68858;48.642;9.142;2023-04-24T01:43:56;1.43;;;0.87;;
79403;SDS011;68858;48.642;9.142;2023-04-24T01:54:06;1.70;;;0.97;;
79403;SDS011;68858;48.642;9.142;2023-04-24T01:57:08;1.70;;;1.00;;
79403;SDS011;68858;48.642;9.142;2023-04-24T02:00:38;2.27;;;1.00;;
79403;SDS011;68858;48.642;9.142;2023-04-24T02:03:31;2.80;;;1.20;;
79403;SDS011;68858;48.642;9.142;2023-04-24T02:06:11;1.90;;;1.07;;
79403;SDS011;68858;48.642;9.142;2023-04-24T02:08:58;1.43;;;0.90;;
79403;SDS011;68858;48.642;9.142;2023-04-24T02:11:38;1.40;;;0.80;;
79403;SDS011;68858;48.642;9.142;2023-04-24T02:14:12;2.13;;;1.00;;
79403;SDS011;68858;48.642;9.142;2023-04-24T02:16:47;2.03;;;1.17;;
79403;SDS011;68858;48.642;9.142;2023-04-24T02:19:34;2.23;;;1.10;;
79403;SDS011;68858;48.642;9.142;2023-04-24T02:22:01;2.33;;;1.27;;
79403;SDS011;68858;48.642;9.142;2023-04-24T02:24:46;1.00;;;0.90;;
79403;SDS011;68858;48.642;9.142;2023-04-24T02:27:38;1.57;;;0.80;;
79403;SDS011;68858;48.642;9.142;2023-04-24T02:30:22;0.90;;;0.90;;
79403;SDS011;68858;48.642;9.142;2023-04-24T02:36:21;2.23;;;1.10;;
79403;SDS011;68858;48.642;9.142;2023-04-24T02:39:27;1.03;;;1.00;;
79403;SDS011;68858;48.642;9.142;2023-04-24T02:50:45;2.07;;;1.03;;
79403;SDS011;68858;48.642;9.142;2023-04-24T03:00:45;2.90;;;1.13;;
79403;SDS011;68858;48.642;9.142;2023-04-24T03:03:46;3.40;;;1.00;;
79403;SDS011;68858;48.642;9.142;2023-04-24T03:06:49;1.30;;;0.97;;
79403;SDS011;68858;48.642;9.142;2023-04-24T03:09:43;3.57;;;1.20;;
79403;SDS011;68858;48.642;9.142;2023-04-24T03:12:36;1.97;;;0.97;;
79403;SDS011;68858;48.642;9.142;2023-04-24T03:21:58;2.20;;;1.10;;
79403;SDS011;68858;48.642;9.142;2023-04-24T03:29:15;1.93;;;1.13;;
79403;SDS011;68858;48.642;9.142;2023-04-24T03:35:32;2.27;;;1.30;;
79403;SDS011;68858;48.642;9.142;2023-04-24T03:38:02;4.47;;;1.53;;
79403;SDS011;68858;48.642;9.142;2023-04-24T03:40:33;2.20;;;1.10;;
79403;SDS011;68858;48.642;9.142;2023-04-24T03:43:08;1.30;;;1.10;;
79403;SDS011;68858;48.642;9.142;2023-04-24T03:45:40;3.03;;;1.40;;
79403;SDS011;68858;48.642;9.142;2023-04-24T03:48:07;1.80;;;1.20;;
79403;SDS011;68858;48.642;9.142;2023-04-24T03:50:49;3.73;;;0.90;;
79403;SDS011;68858;48.642;9.142;2023-04-24T03:56:56;3.27;;;1.03;;
79403;SDS011;68858;48.642;9.142;2023-04-24T03:59:32;1.23;;;0.90;;
79403;SDS011;68858;48.642;9.142;2023-04-24T04:11:10;1.83;;;0.80;;
79403;SDS011;68858;48.642;9.142;2023-04-24T04:13:51;1.43;;;1.00;;
79403;SDS011;68858;48.642;9.142;2023-04-24T04:16:21;1.50;;;0.80;;
79403;SDS011;68858;48.642;9.142;2023-04-24T04:18:47;1.90;;;1.27;;
79403;SDS011;68858;48.642;9.142;2023-04-24T04:21:12;2.13;;;1.10;;
79403;SDS011;68858;48.642;9.142;2023-04-24T04:23:47;1.77;;;1.10;;
79403;SDS011;68858;48.642;9.142;2023-04-24T04:26:28;1.20;;;1.10;;
79403;SDS011;68858;48.642;9.142;2023-04-24T04:32:03;1.80;;;1.00;;
79403;SDS011;68858;48.642;9.142;2023-04-24T04:34:44;2.43;;;1.10;;
79403;SDS011;68858;48.642;9.142;2023-04-24T04:40:11;2.63;;;1.00;;
79403;SDS011;68858;48.642;9.142;2023-04-24T04:46:26;2.27;;;1.23;;
79403;SDS011;68858;48.642;9.142;2023-04-24T04:49:02;1.37;;;1.20;;
79403;SDS011;68858;48.642;9.142;2023-04-24T04:51:36;4.00;;;1.70;;
79403;SDS011;68858;48.642;9.142;2023-04-24T04:54:12;3.83;;;1.90;;
79403;SDS011;68858;48.642;9.142;2023-04-24T04:56:57;2.30;;;2.10;;
79403;SDS011;68858;48.642;9.142;2023-04-24T04:59:33;3.77;;;2.07;;
79403;SDS011;68858;48.642;9.142;2023-04-24T05:02:40;2.40;;;1.77;;
79403;SDS011;68858;48.642;9.142;2023-04-24T05:08:29;2.00;;;1.70;;
79403;SDS011;68858;48.642;9.142;2023-04-24T05:10:57;2.13;;;1.70;;
79403;SDS011;68858;48.642;9.142;2023-04-24T05:13:37;1.77;;;1.63;;
79403;SDS011;68858;48.642;9.142;2023-04-24T05:16:03;1.90;;;1.67;;
79403;SDS011;68858;48.642;9.142;2023-04-24T05:18:58;2.80;;;1.57;;
79403;SDS011;68858;48.642;9.142;2023-04-24T05:21:32;2.57;;;1.83;;
79403;SDS011;68858;48.642;9.142;2023-04-24T05:24:30;3.43;;;1.97;;
79403;SDS011;68858;48.642;9.142;2023-04-24T05:27:35;2.93;;;1.80;;
79403;SDS011;68858;48.642;9.142;2023-04-24T05:30:13;2.27;;;1.80;;
79403;SDS011;68858;48.642;9.142;2023-04-24T05:32:44;2.30;;;1.97;;
79403;SDS011;68858;48.642;9.142;2023-04-24T05:35:19;2.20;;;2.00;;
79403;SDS011;68858;48.642;9.142;2023-04-24T05:37:49;2.50;;;2.30;;
79403;SDS011;68858;48.642;9.142;2023-04-24T05:40:14;2.30;;;2.20;;
79403;SDS011;68858;48.642;9.142;2023-04-24T05:42:40;2.90;;;2.57;;
79403;SDS011;68858;48.642;9.142;2023-04-24T05:45:05;2.70;;;2.00;;
79403;SDS011;68858;48.642;9.142;2023-04-24T05:47:31;3.10;;;2.00;;
79403;SDS011;68858;48.642;9.142;2023-04-24T05:49:57;2.20;;;2.00;;
79403;SDS011;68858;48.642;9.142;2023-04-24T05:52:22;2.30;;;2.10;;
79403;SDS011;68858;48.642;9.142;2023-04-24T05:54:47;2.20;;;1.97;;
79403;SDS011;68858;48.642;9.142;2023-04-24T05:57:13;3.33;;;2.00;;
79403;SDS011;68858;48.642;9.142;2023-04-24T05:59:38;3.57;;;2.27;;
79403;SDS011;68858;48.642;9.142;2023-04-24T06:02:03;3.23;;;2.40;;
79403;SDS011;68858;48.642;9.142;2023-04-24T06:04:29;2.17;;;1.97;;
79403;SDS011;68858;48.642;9.142;2023-04-24T06:06:54;2.70;;;2.50;;
79403;SDS011;68858;48.642;9.142;2023-04-24T06:09:24;2.10;;;1.90;;
79403;SDS011;68858;48.642;9.142;2023-04-24T06:11:49;2.47;;;2.27;;
79403;SDS011;68858;48.642;9.142;2023-04-24T06:14:17;2.43;;;2.23;;
79403;SDS011;68858;48.642;9.142;2023-04-24T06:16:42;3.10;;;2.50;;
79403;SDS011;68858;48.642;9.142;2023-04-24T06:19:08;2.97;;;2.30;;
79403;SDS011;68858;48.642;9.142;2023-04-24T06:21:33;2.87;;;2.00;;
79403;SDS011;68858;48.642;9.142;2023-04-24T06:23:59;2.53;;;1.93;;
79403;SDS011;68858;48.642;9.142;2023-04-24T06:26:25;4.53;;;2.20;;
79403;SDS011;68858;48.642;9.142;2023-04-24T06:28:51;2.37;;;2.10;;
79403;SDS011;68858;48.642;9.142;2023-04-24T06:31:18;1.70;;;1.60;;
79403;SDS011;68858;48.642;9.142;2023-04-24T06:33:44;2.73;;;2.30;;
79403;SDS011;68858;48.642;9.142;2023-04-24T06:36:10;2.00;;;1.80;;
79403;SDS011;68858;48.642;9.142;2023-04-24T06:38:35;2.43;;;1.53;;
79403;SDS011;68858;48.642;9.142;2023-04-24T06:41:01;2.40;;;1.63;;
79403;SDS011;68858;48.642;9.142;2023-04-24T06:43:26;2.83;;;1.87;;
79403;SDS011;68858;48.642;9.142;2023-04-24T06:45:52;2.80;;;1.73;;
79403;SDS011;68858;48.642;9.142;2023-04-24T06:48:17;1.97;;;1.60;;
79403;SDS011;68858;48.642;9.142;2023-04-24T06:50:43;1.90;;;1.80;;
79403;SDS011;68858;48.642;9.142;2023-04-24T06:53:08;2.20;;;1.80;;
79403;SDS011;68858;48.642;9.142;2023-04-24T06:55:35;1.63;;;1.53;;
79403;SDS011;68858;48.642;9.142;2023-04-24T06:58:01;2.07;;;1.67;;
79403;SDS011;68858;48.642;9.142;2023-04-24T07:00:26;2.53;;;1.70;;
79403;SDS011;68858;48.642;9.142;2023-04-24T07:02:52;3.33;;;1.80;;
79403;SDS011;68858;48.642;9.142;2023-04-24T07:05:17;1.73;;;1.60;;
79403;SDS011;68858;48.642;9.142;2023-04-24T07:07:45;2.47;;;1.70;;
79403;SDS011;68858;48.642;9.142;2023-04-24T07:10:11;1.90;;;1.80;;
79403;SDS011;68858;48.642;9.142;2023-04-24T07:12:38;2.33;;;1.87;;
79403;SDS011;68858;48.642;9.142;2023-04-24T07:15:03;2.90;;;2.00;;
79403;SDS011;68858;48.642;9.142;2023-04-24T07:17:30;2.33;;;1.90;;
79403;SDS011;68858;48.642;9.142;2023-04-24T07:19:55;2.43;;;2.10;;
79403;SDS011;68858;48.642;9.142;2023-04-24T07:22:20;1.90;;;1.80;;
79403;SDS011;68858;48.642;9.142;2023-04-24T07:24:46;1.60;;;1.50;;
79403;SDS011;68858;48.642;9.142;2023-04-24T07:27:11;2.03;;;1.83;;
79403;SDS011;68858;48.642;9.142;2023-04-24T07:29:37;2.17;;;1.97;;
79403;SDS011;68858;48.642;9.142;2023-04-24T07:32:03;2.00;;;1.80;;
79403;SDS011;68858;48.642;9.142;2023-04-24T07:34:28;2.30;;;2.10;;
79403;SDS011;68858;48.642;9.142;2023-04-24T07:36:54;1.60;;;1.50;;
79403;SDS011;68858;48.642;9.142;2023-04-24T07:39:19;1.40;;;1.30;;
79403;SDS011;68858;48.642;9.142;2023-04-24T07:41:45;2.40;;;1.40;;
79403;SDS011;68858;48.642;9.142;2023-04-24T07:44:13;1.23;;;1.17;;
79403;SDS011;68858;48.642;9.142;2023-04-24T07:46:38;1.70;;;1.50;;
79403;SDS011;68858;48.642;9.142;2023-04-24T07:49:05;1.63;;;1.17;;
79403;SDS011;68858;48.642;9.142;2023-04-24T07:51:30;1.50;;;1.40;;
79403;SDS011;68858;48.642;9.142;2023-04-24T07:53:56;1.40;;;1.30;;
79403;SDS011;68858;48.642;9.142;2023-04-24T07:56:22;1.50;;;1.40;;
79403;SDS011;68858;48.642;9.142;2023-04-24T07:58:47;1.73;;;1.40;;
79403;SDS011;68858;48.642;9.142;2023-04-24T08:01:12;1.53;;;1.43;;
79403;SDS011;68858;48.642;9.142;2023-04-24T08:03:38;1.47;;;1.37;;
79403;SDS011;68858;48.642;9.142;2023-04-24T08:06:03;1.50;;;1.40;;
79403;SDS011;68858;48.642;9.142;2023-04-24T08:08:28;1.53;;;1.40;;
79403;SDS011;68858;48.642;9.142;2023-04-24T08:10:54;1.53;;;1.40;;
79403;SDS011;68858;48.642;9.142;2023-04-24T08:13:20;1.90;;;1.57;;
79403;SDS011;68858;48.642;9.142;2023-04-24T08:15:45;1.73;;;1.30;;
79403;SDS011;68858;48.642;9.142;2023-04-24T08:18:11;1.70;;;1.50;;
79403;SDS011;68858;48.642;9.142;2023-04-24T08:20:37;1.40;;;1.30;;
79403;SDS011;68858;48.642;9.142;2023-04-24T08:23:02;1.70;;;1.50;;
79403;SDS011;68858;48.642;9.142;2023-04-24T08:25:28;1.63;;;1.40;;
79403;SDS011;68858;48.642;9.142;2023-04-24T08:27:53;1.43;;;1.33;;
79403;SDS011;68858;48.642;9.142;2023-04-24T08:30:19;1.53;;;1.43;;
79403;SDS011;68858;48.642;9.142;2023-04-24T08:32:45;1.70;;;1.57;;
79403;SDS011;68858;48.642;9.142;2023-04-24T08:35:10;2.27;;;1.67;;
79403;SDS011;68858;48.642;9.142;2023-04-24T08:37:36;2.57;;;1.57;;
79403;SDS011;68858;48.642;9.142;2023-04-24T08:40:06;1.83;;;1.60;;
79403;SDS011;68858;48.642;9.142;2023-04-24T08:42:36;1.70;;;1.60;;
79403;SDS011;68858;48.642;9.142;2023-04-24T08:45:02;2.10;;;1.80;;
79403;SDS011;68858;48.642;9.142;2023-04-24T08:47:28;1.50;;;1.40;;
79403;SDS011;68858;48.642;9.142;2023-04-24T08:49:54;2.23;;;1.60;;
79403;SDS011;68858;48.642;9.142;2023-04-24T08:52:20;3.60;;;1.60;;
79403;SDS011;68858;48.642;9.142;2023-04-24T08:54:46;2.13;;;1.43;;
79403;SDS011;68858;48.642;9.142;2023-04-24T08:57:12;1.83;;;1.50;;
79403;SDS011;68858;48.642;9.142;2023-04-24T08:59:39;1.57;;;1.30;;
79403;SDS011;68858;48.642;9.142;2023-04-24T09:02:04;1.70;;;1.30;;
79403;SDS011;68858;48.642;9.142;2023-04-24T09:04:30;2.33;;;1.50;;
79403;SDS011;68858;48.642;9.142;2023-04-24T09:06:56;2.37;;;1.57;;
79403;SDS011;68858;48.642;9.142;2023-04-24T09:09:23;2.47;;;1.70;;
79403;SDS011;68858;48.642;9.142;2023-04-24T09:11:49;1.53;;;1.43;;
79403;SDS011;68858;48.642;9.142;2023-04-24T09:14:16;2.10;;;1.43;;
79403;SDS011;68858;48.642;9.142;2023-04-24T09:16:42;1.60;;;1.50;;
79403;SDS011;68858;48.642;9.142;2023-04-24T09:19:08;2.03;;;1.50;;
79403;SDS011;68858;48.642;9.142;2023-04-24T09:21:33;1.90;;;1.40;;
79403;SDS011;68858;48.642;9.142;2023-04-24T09:24:00;1.53;;;1.30;;
79403;SDS011;68858;48.642;9.142;2023-04-24T09:26:30;3.80;;;1.47;;
79403;SDS011;68858;48.642;9.142;2023-04-24T09:28:57;1.60;;;1.30;;
79403;SDS011;68858;48.642;9.142;2023-04-24T09:31:22;1.50;;;1.40;;
79403;SDS011;68858;48.642;9.142;2023-04-24T09:33:55;1.90;;;1.60;;
79403;SDS011;68858;48.642;9.142;2023-04-24T09:36:28;2.13;;;1.60;;
79403;SDS011;68858;48.642;9.142;2023-04-24T09:38:58;1.63;;;1.33;;
79403;SDS011;68858;48.642;9.142;2023-04-24T09:41:24;2.73;;;1.47;;
79403;SDS011;68858;48.642;9.142;2023-04-24T09:43:50;2.73;;;1.20;;
79403;SDS011;68858;48.642;9.142;2023-04-24T09:46:15;1.37;;;1.27;;
79403;SDS011;68858;48.642;9.142;2023-04-24T09:48:43;1.27;;;1.17;;
79403;SDS011;68858;48.642;9.142;2023-04-24T09:51:09;1.43;;;0.90;;
79403;SDS011;68858;48.642;9.142;2023-04-24T09:53:36;1.03;;;1.03;;
79403;SDS011;68858;48.642;9.142;2023-04-24T09:56:02;1.13;;;1.03;;
79403;SDS011;68858;48.642;9.142;2023-04-24T09:58:32;1.57;;;0.87;;
79403;SDS011;68858;48.642;9.142;2023-04-24T10:00:57;1.23;;;1.13;;
79403;SDS011;68858;48.642;9.142;2023-04-24T10:03:26;3.70;;;1.20;;
79403;SDS011;68858;48.642;9.142;2023-04-24T10:05:54;1.33;;;1.13;;
79403;SDS011;68858;48.642;9.142;2023-04-24T10:08:24;1.70;;;1.10;;
79403;SDS011;68858;48.642;9.142;2023-04-24T10:10:51;1.40;;;1.10;;
79403;SDS011;68858;48.642;9.142;2023-04-24T10:13:16;1.33;;;1.03;;
79403;SDS011;68858;48.642;9.142;2023-04-24T10:15:41;1.73;;;0.97;;
79403;SDS011;68858;48.642;9.142;2023-04-24T10:18:07;1.20;;;1.10;;
79403;SDS011;68858;48.642;9.142;2023-04-24T10:20:34;1.13;;;0.90;;
79403;SDS011;68858;48.642;9.142;2023-04-24T10:23:01;2.17;;;1.10;;
79403;SDS011;68858;48.642;9.142;2023-04-24T10:25:27;1.03;;;0.87;;
79403;SDS011;68858;48.642;9.142;2023-04-24T10:27:57;1.70;;;0.93;;
79403;SDS011;68858;48.642;9.142;2023-04-24T10:30:24;2.63;;;1.20;;
79403;SDS011;68858;48.642;9.142;2023-04-24T10:32:51;1.97;;;1.20;;
79403;SDS011;68858;48.642;9.142;2023-04-24T10:35:16;1.57;;;1.00;;
79403;SDS011;68858;48.642;9.142;2023-04-24T10:40:09;1.03;;;0.87;;
79403;SDS011;68858;48.642;9.142;2023-04-24T10:42:35;2.10;;;0.90;;
79403;SDS011;68858;48.642;9.142;2023-04-24T10:45:06;1.63;;;1.00;;
79403;SDS011;68858;48.642;9.142;2023-04-24T10:47:41;1.13;;;0.90;;
79403;SDS011;68858;48.642;9.142;2023-04-24T10:50:09;1.03;;;1.00;;
79403;SDS011;68858;48.642;9.142;2023-04-24T10:52:45;1.60;;;1.20;;
79403;SDS011;68858;48.642;9.142;2023-04-24T10:55:12;1.20;;;1.03;;
79403;SDS011;68858;48.642;9.142;2023-04-24T10:57:38;1.87;;;1.20;;
79403;SDS011;68858;48.642;9.142;2023-04-24T11:00:19;1.13;;;1.03;;
79403;SDS011;68858;48.642;9.142;2023-04-24T11:02:46;1.20;;;1.10;;
79403;SDS011;68858;48.642;9.142;2023-04-24T11:05:18;1.20;;;1.10;;
79403;SDS011;68858;48.642;9.142;2023-04-24T11:16:35;1.87;;;1.07;;
79403;SDS011;68858;48.642;9.142;2023-04-24T11:26:51;1.33;;;1.23;;
79403;SDS011;68858;48.642;9.142;2023-04-24T11:29:20;1.73;;;1.57;;
79403;SDS011;68858;48.642;9.142;2023-04-24T11:31:46;2.67;;;1.20;;
79403;SDS011;68858;48.642;9.142;2023-04-24T11:34:14;1.20;;;1.10;;
79403;SDS011;68858;48.642;9.142;2023-04-24T11:36:44;2.03;;;1.20;;
79403;SDS011;68858;48.642;9.142;2023-04-24T11:39:11;1.03;;;0.83;;
79403;SDS011;68858;48.642;9.142;2023-04-24T11:41:37;1.73;;;1.10;;
79403;SDS011;68858;48.642;9.142;2023-04-24T11:44:03;1.70;;;1.20;;
79403;SDS011;68858;48.642;9.142;2023-04-24T11:46:29;1.27;;;0.90;;
79403;SDS011;68858;48.642;9.142;2023-04-24T11:48:55;1.30;;;0.97;;
79403;SDS011;68858;48.642;9.142;2023-04-24T11:51:25;1.10;;;1.03;;
79403;SDS011;68858;48.642;9.142;2023-04-24T11:53:51;1.07;;;0.90;;
79403;SDS011;68858;48.642;9.142;2023-04-24T11:56:18;0.90;;;0.90;;
79403;SDS011;68858;48.642;9.142;2023-04-24T11:58:44;1.00;;;1.00;;
79403;SDS011;68858;48.642;9.142;2023-04-24T12:01:09;1.23;;;1.07;;
79403;SDS011;68858;48.642;9.142;2023-04-24T12:03:35;1.97;;;1.10;;
79403;SDS011;68858;48.642;9.142;2023-04-24T12:06:07;2.00;;;1.13;;
79403;SDS011;68858;48.642;9.142;2023-04-24T12:08:33;3.23;;;1.23;;
79403;SDS011;68858;48.642;9.142;2023-04-24T12:11:02;1.43;;;1.03;;
79403;SDS011;68858;48.642;9.142;2023-04-24T12:13:29;1.33;;;1.23;;
79403;SDS011;68858;48.642;9.142;2023-04-24T12:15:56;1.83;;;1.50;;
79403;SDS011;68858;48.642;9.142;2023-04-24T12:18:22;1.30;;;1.20;;
79403;SDS011;68858;48.642;9.142;2023-04-24T12:20:48;2.10;;;1.33;;
79403;SDS011;68858;48.642;9.142;2023-04-24T12:23:13;1.53;;;1.27;;
79403;SDS011;68858;48.642;9.142;2023-04-24T12:25:39;1.40;;;1.30;;
79403;SDS011;68858;48.642;9.142;2023-04-24T12:30:32;2.10;;;1.20;;
79403;SDS011;68858;48.642;9.142;2023-04-24T12:32:59;1.23;;;1.13;;
79403;SDS011;68858;48.642;9.142;2023-04-24T12:35:27;1.37;;;1.10;;
79403;SDS011;68858;48.642;9.142;2023-04-24T12:37:54;1.30;;;1.17;;
79403;SDS011;68858;48.642;9.142;2023-04-24T12:40:20;1.30;;;1.10;;
79403;SDS011;68858;48.642;9.142;2023-04-24T12:42:50;2.03;;;1.30;;
79403;SDS011;68858;48.642;9.142;2023-04-24T12:45:16;2.17;;;1.03;;
79403;SDS011;68858;48.642;9.142;2023-04-24T12:47:43;1.63;;;1.07;;
79403;SDS011;68858;48.642;9.142;2023-04-24T12:50:11;0.90;;;0.90;;
79403;SDS011;68858;48.642;9.142;2023-04-24T12:52:38;3.13;;;1.20;;
79403;SDS011;68858;48.642;9.142;2023-04-24T12:55:04;1.60;;;1.30;;
79403;SDS011;68858;48.642;9.142;2023-04-24T12:57:33;2.20;;;1.33;;
79403;SDS011;68858;48.642;9.142;2023-04-24T12:59:59;1.20;;;1.10;;
79403;SDS011;68858;48.642;9.142;2023-04-24T13:02:26;1.73;;;1.37;;
79403;SDS011;68858;48.642;9.142;2023-04-24T13:04:57;1.57;;;1.23;;
79403;SDS011;68858;48.642;9.142;2023-04-24T13:07:23;1.67;;;1.10;;
79403;SDS011;68858;48.642;9.142;2023-04-24T13:09:49;1.83;;;1.70;;
79403;SDS011;68858;48.642;9.142;2023-04-24T13:12:15;2.50;;;2.23;;
79403;SDS011;68858;48.642;9.142;2023-04-24T13:14:40;2.40;;;1.47;;
79403;SDS011;68858;48.642;9.142;2023-04-24T13:17:06;1.70;;;1.60;;
79403;SDS011;68858;48.642;9.142;2023-04-24T13:19:36;1.43;;;1.33;;
79403;SDS011;68858;48.642;9.142;2023-04-24T13:22:02;1.47;;;1.30;;
79403;SDS011;68858;48.642;9.142;2023-04-24T13:24:28;1.30;;;1.20;;
79403;SDS011;68858;48.642;9.142;2023-04-24T13:26:53;2.13;;;1.50;;
79403;SDS011;68858;48.642;9.142;2023-04-24T13:29:19;2.00;;;1.77;;
79403;SDS011;68858;48.642;9.142;2023-04-24T13:31:45;1.40;;;1.30;;
79403;SDS011;68858;48.642;9.142;2023-04-24T13:34:11;2.77;;;1.70;;
79403;SDS011;68858;48.642;9.142;2023-04-24T13:36:37;1.83;;;1.50;;
79403;SDS011;68858;48.642;9.142;2023-04-24T13:39:03;2.70;;;1.30;;
79403;SDS011;68858;48.642;9.142;2023-04-24T13:41:30;1.87;;;1.50;;
79403;SDS011;68858;48.642;9.142;2023-04-24T13:43:55;2.97;;;1.70;;
79403;SDS011;68858;48.642;9.142;2023-04-24T13:46:21;1.70;;;1.60;;
79403;SDS011;68858;48.642;9.142;2023-04-24T13:48:46;2.03;;;1.70;;
79403;SDS011;68858;48.642;9.142;2023-04-24T13:51:11;1.77;;;1.67;;
79403;SDS011;68858;48.642;9.142;2023-04-24T13:53:37;2.60;;;1.50;;
79403;SDS011;68858;48.642;9.142;2023-04-24T13:56:03;1.77;;;1.60;;
79403;SDS011;68858;48.642;9.142;2023-04-24T13:58:29;1.90;;;1.70;;
79403;SDS011;68858;48.642;9.142;2023-04-24T14:00:55;3.13;;;1.60;;
79403;SDS011;68858;48.642;9.142;2023-04-24T14:03:20;1.50;;;1.40;;
79403;SDS011;68858;48.642;9.142;2023-04-24T14:05:45;3.00;;;1.50;;
79403;SDS011;68858;48.642;9.142;2023-04-24T14:08:11;1.90;;;1.47;;
79403;SDS011;68858;48.642;9.142;2023-04-24T14:10:36;2.50;;;1.70;;
79403;SDS011;68858;48.642;9.142;2023-04-24T14:13:02;1.53;;;1.43;;
79403;SDS011;68858;48.642;9.142;2023-04-24T14:15:27;1.67;;;1.57;;
79403;SDS011;68858;48.642;9.142;2023-04-24T14:17:53;3.80;;;1.70;;
79403;SDS011;68858;48.642;9.142;2023-04-24T14:20:18;1.53;;;1.43;;
79403;SDS011;68858;48.642;9.142;2023-04-24T14:22:43;2.17;;;1.63;;
79403;SDS011;68858;48.642;9.142;2023-04-24T14:25:09;2.93;;;1.80;;
79403;SDS011;68858;48.642;9.142;2023-04-24T14:27:34;2.10;;;1.60;;
79403;SDS011;68858;48.642;9.142;2023-04-24T14:30:00;2.00;;;1.80;;
79403;SDS011;68858;48.642;9.142;2023-04-24T14:32:26;2.17;;;1.60;;
79403;SDS011;68858;48.642;9.142;2023-04-24T14:34:51;2.47;;;1.53;;
79403;SDS011;68858;48.642;9.142;2023-04-24T14:37:16;1.77;;;1.53;;
79403;SDS011;68858;48.642;9.142;2023-04-24T14:39:42;1.70;;;1.60;;
79403;SDS011;68858;48.642;9.142;2023-04-24T14:42:07;1.70;;;1.60;;
79403;SDS011;68858;48.642;9.142;2023-04-24T14:44:32;2.03;;;1.70;;
79403;SDS011;68858;48.642;9.142;2023-04-24T14:46:58;2.00;;;1.50;;
79403;SDS011;68858;48.642;9.142;2023-04-24T14:49:25;1.73;;;1.50;;
79403;SDS011;68858;48.642;9.142;2023-04-24T14:51:50;1.73;;;1.60;;
79403;SDS011;68858;48.642;9.142;2023-04-24T14:54:16;1.53;;;1.40;;
79403;SDS011;68858;48.642;9.142;2023-04-24T14:56:41;1.67;;;1.50;;
79403;SDS011;68858;48.642;9.142;2023-04-24T14:59:08;1.73;;;1.33;;
79403;SDS011;68858;48.642;9.142;2023-04-24T15:01:34;2.77;;;1.70;;
79403;SDS011;68858;48.642;9.142;2023-04-24T15:03:59;2.13;;;1.50;;
79403;SDS011;68858;48.642;9.142;2023-04-24T15:06:25;1.70;;;1.60;;
79403;SDS011;68858;48.642;9.142;2023-04-24T15:08:50;1.50;;;1.40;;
79403;SDS011;68858;48.642;9.142;2023-04-24T15:11:16;1.97;;;1.50;;
79403;SDS011;68858;48.642;9.142;2023-04-24T15:13:42;1.87;;;1.63;;
79403;SDS011;68858;48.642;9.142;2023-04-24T15:16:09;1.50;;;1.40;;
79403;SDS011;68858;48.642;9.142;2023-04-24T15:18:35;1.77;;;1.60;;
79403;SDS011;68858;48.642;9.142;2023-04-24T15:21:00;3.60;;;2.00;;
79403;SDS011;68858;48.642;9.142;2023-04-24T15:23:26;2.20;;;1.80;;
79403;SDS011;68858;48.642;9.142;2023-04-24T15:25:51;3.13;;;1.50;;
79403;SDS011;68858;48.642;9.142;2023-04-24T15:28:17;3.70;;;1.73;;
79403;SDS011;68858;48.642;9.142;2023-04-24T15:30:43;1.77;;;1.30;;
79403;SDS011;68858;48.642;9.142;2023-04-24T15:33:08;1.40;;;1.30;;
79403;SDS011;68858;48.642;9.142;2023-04-24T15:35:33;1.70;;;1.60;;
79403;SDS011;68858;48.642;9.142;2023-04-24T15:37:59;1.60;;;1.50;;
79403;SDS011;68858;48.642;9.142;2023-04-24T15:40:24;2.03;;;1.60;;
79403;SDS011;68858;48.642;9.142;2023-04-24T15:42:50;1.97;;;1.47;;
79403;SDS011;68858;48.642;9.142;2023-04-24T15:45:16;2.00;;;1.67;;
79403;SDS011;68858;48.642;9.142;2023-04-24T15:47:41;1.53;;;1.37;;
79403;SDS011;68858;48.642;9.142;2023-04-24T15:50:06;2.67;;;1.77;;
79403;SDS011;68858;48.642;9.142;2023-04-24T15:52:35;2.17;;;1.53;;
79403;SDS011;68858;48.642;9.142;2023-04-24T15:55:02;1.50;;;1.40;;
79403;SDS011;68858;48.642;9.142;2023-04-24T15:57:28;1.50;;;1.40;;
79403;SDS011;68858;48.642;9.142;2023-04-24T15:59:54;1.97;;;1.63;;
79403;SDS011;68858;48.642;9.142;2023-04-24T16:02:19;1.70;;;1.60;;
79403;SDS011;68858;48.642;9.142;2023-04-24T16:04:45;1.80;;;1.70;;
79403;SDS011;68858;48.642;9.142;2023-04-24T16:07:12;5.20;;;3.30;;
79403;SDS011;68858;48.642;9.142;2023-04-24T16:09:38;2.60;;;1.67;;
79403;SDS011;68858;48.642;9.142;2023-04-24T16:12:03;2.63;;;1.63;;
79403;SDS011;68858;48.642;9.142;2023-04-24T16:14:29;2.43;;;1.60;;
79403;SDS011;68858;48.642;9.142;2023-04-24T16:16:55;2.07;;;1.60;;
79403;SDS011;68858;48.642;9.142;2023-04-24T16:19:20;1.90;;;1.40;;
79403;SDS011;68858;48.642;9.142;2023-04-24T16:21:45;1.67;;;1.57;;
79403;SDS011;68858;48.642;9.142;2023-04-24T16:24:11;1.70;;;1.60;;
79403;SDS011;68858;48.642;9.142;2023-04-24T16:26:36;2.10;;;1.90;;
79403;SDS011;68858;48.642;9.142;2023-04-24T16:29:02;2.63;;;1.80;;
79403;SDS011;68858;48.642;9.142;2023-04-24T16:31:28;2.17;;;1.60;;
79403;SDS011;68858;48.642;9.142;2023-04-24T16:33:53;1.83;;;1.50;;
79403;SDS011;68858;48.642;9.142;2023-04-24T16:36:19;2.10;;;1.33;;
79403;SDS011;68858;48.642;9.142;2023-04-24T16:38:45;1.70;;;1.30;;
79403;SDS011;68858;48.642;9.142;2023-04-24T16:41:11;3.07;;;1.60;;
79403;SDS011;68858;48.642;9.142;2023-04-24T16:43:36;2.73;;;1.63;;
79403;SDS011;68858;48.642;9.142;2023-04-24T16:46:02;1.70;;;1.50;;
79403;SDS011;68858;48.642;9.142;2023-04-24T16:48:27;2.80;;;1.30;;
79403;SDS011;68858;48.642;9.142;2023-04-24T16:50:52;1.40;;;1.20;;
79403;SDS011;68858;48.642;9.142;2023-04-24T16:53:18;1.70;;;1.30;;
79403;SDS011;68858;48.642;9.142;2023-04-24T16:55:43;2.07;;;1.33;;
79403;SDS011;68858;48.642;9.142;2023-04-24T16:58:10;1.50;;;1.40;;
79403;SDS011;68858;48.642;9.142;2023-04-24T17:00:36;1.97;;;1.40;;
79403;SDS011;68858;48.642;9.142;2023-04-24T17:03:02;1.70;;;1.60;;
79403;SDS011;68858;48.642;9.142;2023-04-24T17:05:28;2.20;;;1.97;;
79403;SDS011;68858;48.642;9.142;2023-04-24T17:07:53;2.00;;;1.80;;
79403;SDS011;68858;48.642;9.142;2023-04-24T17:10:19;1.67;;;1.40;;
79403;SDS011;68858;48.642;9.142;2023-04-24T17:12:44;1.70;;;1.50;;
79403;SDS011;68858;48.642;9.142;2023-04-24T17:15:10;1.50;;;1.40;;
79403;SDS011;68858;48.642;9.142;2023-04-24T17:17:35;2.87;;;1.80;;
79403;SDS011;68858;48.642;9.142;2023-04-24T17:20:01;1.67;;;1.30;;
79403;SDS011;68858;48.642;9.142;2023-04-24T17:22:26;1.37;;;1.27;;
79403;SDS011;68858;48.642;9.142;2023-04-24T17:24:51;1.50;;;1.40;;
79403;SDS011;68858;48.642;9.142;2023-04-24T17:27:17;1.60;;;1.50;;
79403;SDS011;68858;48.642;9.142;2023-04-24T17:29:42;1.93;;;1.73;;
79403;SDS011;68858;48.642;9.142;2023-04-24T17:32:08;2.40;;;1.70;;
79403;SDS011;68858;48.642;9.142;2023-04-24T17:34:33;4.23;;;3.33;;
79403;SDS011;68858;48.642;9.142;2023-04-24T17:36:59;1.60;;;1.50;;
79403;SDS011;68858;48.642;9.142;2023-04-24T17:39:24;1.70;;;1.50;;
79403;SDS011;68858;48.642;9.142;2023-04-24T17:41:50;2.10;;;1.87;;